Time;durP1;ratioP1;P1;durP2;ratioP2;P2;SDS_P1;SDS_P2;PMS_P1;PMS_P2;Temp;Humidity;BMP_temperature;BMP_pressure;BME280_temperature;BME280_humidity;BME280_pressure;Samples;Min_cycle;Max_cycle;Signal;HPM_P1;HPM_P2
2022/03/21 00:01:35;;;;;;;;;;;2.30;99.90;;;;;;5074953;28;20027;-72
2022/03/21 00:04:02;;;;;;;;;;;2.30;99.90;;;;;;5079231;28;20402;-72
2022/03/21 00:06:29;;;;;;;;;;;2.30;99.90;;;;;;5082212;28;19932;-72
2022/03/21 00:08:55;;;;;;;;;;;2.20;99.90;;;;;;5076495;28;19931;-71
2022/03/21 00:11:23;;;;;;;;;;;2.20;99.90;;;;;;5075516;28;20299;-70
2022/03/21 00:13:53;;;;;;;;;;;2.20;99.90;;;;;;5077442;28;20393;-72
2022/03/21 00:16:26;;;;;;;;;;;2.20;99.90;;;;;;5076734;28;20295;-72
2022/03/21 00:18:56;;;;;;;;;;;1.90;99.90;;;;;;5079163;28;20015;-71
2022/03/21 00:21:23;;;;;;;;;;;2.00;99.90;;;;;;5083464;28;19928;-72
2022/03/21 00:23:50;;;;;;;;;;;1.90;99.90;;;;;;5080943;28;20305;-70
2022/03/21 00:26:42;;;;;;;;;;;1.80;99.90;;;;;;5077839;28;19924;-75
2022/03/21 00:29:14;;;;;;;;;;;1.80;99.90;;;;;;5076732;28;20018;-69
2022/03/21 00:31:41;;;;;;;;;;;2.00;99.90;;;;;;5083402;28;19924;-69
2022/03/21 00:34:07;;;;;;;;;;;2.00;99.90;;;;;;5081700;28;19938;-70
2022/03/21 00:36:34;;;;;;;;;;;2.00;99.90;;;;;;5082985;28;20015;-70
2022/03/21 00:39:01;;;;;;;;;;;2.00;99.90;;;;;;5082493;28;19928;-74
2022/03/21 00:41:31;;;;;;;;;;;2.10;99.90;;;;;;5080133;28;19966;-74
2022/03/21 00:43:59;;;;;;;;;;;2.10;99.90;;;;;;5085765;28;20433;-71
2022/03/21 00:46:27;;;;;;;;;;;2.10;99.90;;;;;;5089881;28;20403;-70
2022/03/21 00:48:54;;;;;;;;;;;2.10;99.90;;;;;;5082077;28;19932;-70
2022/03/21 00:51:21;;;;;;;;;;;2.10;99.90;;;;;;5083012;28;19924;-72
2022/03/21 00:53:48;;;;;;;;;;;2.00;99.90;;;;;;5077321;28;20380;-70
2022/03/21 00:56:14;;;;;;;;;;;2.00;99.90;;;;;;5080523;28;19938;-70
2022/03/21 00:58:41;;;;;;;;;;;2.00;99.90;;;;;;5082601;28;19967;-70
2022/03/21 01:01:08;;;;;;;;;;;2.00;99.90;;;;;;5083669;28;19932;-69
2022/03/21 01:03:36;;;;;;;;;;;2.00;99.90;;;;;;5087560;28;19939;-69
2022/03/21 01:06:02;;;;;;;;;;;2.00;99.90;;;;;;5080798;28;20118;-70
2022/03/21 01:08:30;;;;;;;;;;;1.90;99.90;;;;;;5080448;28;20535;-69
2022/03/21 01:10:56;;;;;;;;;;;1.90;99.90;;;;;;5081443;28;19935;-70
2022/03/21 01:13:23;;;;;;;;;;;1.90;99.90;;;;;;5078689;28;20016;-70
2022/03/21 01:15:50;;;;;;;;;;;1.90;99.90;;;;;;5081850;28;19924;-71
2022/03/21 01:18:17;;;;;;;;;;;1.80;99.90;;;;;;5077481;28;19932;-70
2022/03/21 01:20:45;;;;;;;;;;;1.70;99.90;;;;;;5075369;28;20011;-70
2022/03/21 01:23:11;;;;;;;;;;;1.70;99.90;;;;;;5078467;28;19930;-70
2022/03/21 01:25:38;;;;;;;;;;;1.70;99.90;;;;;;5081874;28;19924;-70
2022/03/21 01:28:05;;;;;;;;;;;1.70;99.90;;;;;;5080111;28;20390;-70
2022/03/21 01:30:32;;;;;;;;;;;1.80;99.90;;;;;;5075996;28;19931;-70
2022/03/21 01:32:58;;;;;;;;;;;1.70;99.90;;;;;;5072683;28;19938;-70
2022/03/21 01:35:25;;;;;;;;;;;1.70;99.90;;;;;;5080987;28;20002;-70
2022/03/21 01:37:54;;;;;;;;;;;1.70;99.90;;;;;;5085102;28;19924;-70
2022/03/21 01:40:21;;;;;;;;;;;1.70;99.90;;;;;;5083994;28;19964;-70
2022/03/21 01:42:47;;;;;;;;;;;1.60;99.90;;;;;;5079947;28;19924;-70
2022/03/21 01:45:14;;;;;;;;;;;1.60;99.90;;;;;;5078146;28;19931;-70
2022/03/21 01:47:41;;;;;;;;;;;1.60;99.90;;;;;;5085952;28;19932;-70
2022/03/21 01:50:08;;;;;;;;;;;1.60;99.90;;;;;;5080821;28;19924;-70
2022/03/21 01:52:36;;;;;;;;;;;1.50;99.90;;;;;;5072721;28;19925;-69
2022/03/21 01:57:50;;;;;;;;;;;1.40;99.90;;;;;;5085118;28;19931;-69
2022/03/21 02:00:16;;;;;;;;;;;1.30;99.90;;;;;;5077970;28;19924;-69
2022/03/21 02:02:43;;;;;;;;;;;1.40;99.90;;;;;;5087947;28;19924;-69
2022/03/21 02:05:10;;;;;;;;;;;1.40;99.90;;;;;;5077917;28;19931;-69
2022/03/21 02:07:37;;;;;;;;;;;1.40;99.90;;;;;;5089402;28;19924;-69
2022/03/21 02:10:06;;;;;;;;;;;1.40;99.90;;;;;;5081828;28;20015;-69
2022/03/21 02:12:33;;;;;;;;;;;1.30;99.90;;;;;;5075111;28;19925;-69
2022/03/21 02:15:00;;;;;;;;;;;1.20;99.90;;;;;;5077480;28;19947;-69
2022/03/21 02:17:28;;;;;;;;;;;1.30;99.90;;;;;;5078529;28;19939;-69
2022/03/21 02:19:57;;;;;;;;;;;1.30;99.90;;;;;;5075323;28;20015;-70
2022/03/21 02:22:28;;;;;;;;;;;1.20;99.90;;;;;;5085390;28;19928;-70
2022/03/21 02:25:02;;;;;;;;;;;1.10;99.90;;;;;;5081821;28;19932;-70
2022/03/21 02:27:31;;;;;;;;;;;1.00;99.90;;;;;;5084864;28;19927;-70
2022/03/21 02:30:02;;;;;;;;;;;1.00;99.90;;;;;;5085623;28;19924;-71
2022/03/21 02:32:30;;;;;;;;;;;1.00;99.90;;;;;;5079669;28;19924;-70
2022/03/21 02:34:57;;;;;;;;;;;1.00;99.90;;;;;;5077028;28;19924;-70
2022/03/21 02:37:24;;;;;;;;;;;1.00;99.90;;;;;;5086596;28;19924;-70
2022/03/21 02:39:51;;;;;;;;;;;1.10;99.90;;;;;;5077595;28;19931;-71
2022/03/21 02:42:18;;;;;;;;;;;1.10;99.90;;;;;;5073062;28;19931;-71
2022/03/21 02:44:46;;;;;;;;;;;1.20;99.90;;;;;;5078616;28;19954;-71
2022/03/21 02:47:12;;;;;;;;;;;1.20;99.90;;;;;;5077575;28;20408;-71
2022/03/21 02:49:39;;;;;;;;;;;1.20;99.90;;;;;;5085249;28;19982;-70
2022/03/21 02:52:07;;;;;;;;;;;1.30;99.90;;;;;;5084741;28;20030;-70
2022/03/21 02:54:34;;;;;;;;;;;1.30;99.90;;;;;;5086685;28;19924;-71
2022/03/21 02:57:01;;;;;;;;;;;1.30;99.90;;;;;;5074011;28;19928;-70
2022/03/21 02:59:28;;;;;;;;;;;1.30;99.90;;;;;;5074566;28;19924;-70
2022/03/21 03:01:56;;;;;;;;;;;1.30;99.90;;;;;;5076940;28;20303;-70
2022/03/21 03:04:23;;;;;;;;;;;1.30;99.90;;;;;;5082060;28;19924;-69
2022/03/21 03:06:50;;;;;;;;;;;1.30;99.90;;;;;;5081879;28;19932;-70
2022/03/21 03:09:17;;;;;;;;;;;1.30;99.90;;;;;;5080572;28;19924;-70
2022/03/21 03:11:43;;;;;;;;;;;1.20;99.90;;;;;;5082963;28;19924;-71
2022/03/21 03:14:10;;;;;;;;;;;1.00;99.90;;;;;;5079655;28;20299;-70
2022/03/21 03:16:37;;;;;;;;;;;0.90;99.90;;;;;;5072222;28;19925;-69
2022/03/21 03:19:05;;;;;;;;;;;0.80;99.90;;;;;;5074904;28;19938;-69
2022/03/21 03:21:34;;;;;;;;;;;0.90;99.90;;;;;;5083735;28;19932;-69
2022/03/21 03:24:01;;;;;;;;;;;0.80;99.90;;;;;;5077765;28;19931;-69
2022/03/21 03:26:28;;;;;;;;;;;0.70;99.90;;;;;;5079358;28;19924;-69
2022/03/21 03:28:54;;;;;;;;;;;0.70;99.90;;;;;;5081427;28;19994;-70
2022/03/21 03:31:21;;;;;;;;;;;0.80;99.90;;;;;;5083648;28;20003;-69
2022/03/21 03:33:48;;;;;;;;;;;0.90;99.90;;;;;;5078603;28;19999;-69
2022/03/21 03:36:16;;;;;;;;;;;1.00;99.90;;;;;;5087707;28;20019;-69
2022/03/21 03:38:43;;;;;;;;;;;1.00;99.90;;;;;;5085513;28;19967;-69
2022/03/21 03:41:10;;;;;;;;;;;1.00;99.90;;;;;;5083953;28;19930;-69
2022/03/21 03:43:37;;;;;;;;;;;1.00;99.90;;;;;;5091171;28;19931;-74
2022/03/21 03:46:04;;;;;;;;;;;1.00;99.90;;;;;;5083773;28;19924;-70
2022/03/21 03:48:30;;;;;;;;;;;1.00;99.90;;;;;;5079003;28;19924;-70
2022/03/21 03:50:57;;;;;;;;;;;1.00;99.90;;;;;;5085438;28;19934;-69
2022/03/21 03:53:25;;;;;;;;;;;1.00;99.90;;;;;;5087520;28;20022;-69
2022/03/21 03:55:52;;;;;;;;;;;1.00;99.90;;;;;;5080228;28;20312;-69
2022/03/21 03:58:18;;;;;;;;;;;0.90;99.90;;;;;;5083794;28;19928;-69
2022/03/21 04:00:46;;;;;;;;;;;0.90;99.90;;;;;;5080709;28;20388;-69
2022/03/21 04:05:57;;;;;;;;;;;0.90;99.90;;;;;;5088200;28;19935;-70
2022/03/21 04:08:25;;;;;;;;;;;0.80;99.90;;;;;;5083589;28;20015;-69
2022/03/21 04:10:51;;;;;;;;;;;0.80;99.90;;;;;;5081016;28;19960;-69
2022/03/21 04:13:19;;;;;;;;;;;0.80;99.90;;;;;;5090484;28;19935;-69
2022/03/21 04:15:45;;;;;;;;;;;0.80;99.90;;;;;;5090758;28;20306;-69
2022/03/21 04:18:12;;;;;;;;;;;0.70;99.90;;;;;;5093825;28;19977;-69
2022/03/21 04:20:40;;;;;;;;;;;0.70;99.90;;;;;;5084264;28;19970;-69
2022/03/21 04:23:07;;;;;;;;;;;0.60;99.90;;;;;;5089445;28;19931;-69
2022/03/21 04:25:35;;;;;;;;;;;0.70;99.90;;;;;;5087057;28;19950;-69
2022/03/21 04:28:07;;;;;;;;;;;0.80;99.90;;;;;;5081991;28;20005;-70
2022/03/21 04:30:34;;;;;;;;;;;0.90;99.90;;;;;;5089688;28;19928;-70
2022/03/21 04:33:01;;;;;;;;;;;0.90;99.90;;;;;;5091814;28;19928;-69
2022/03/21 04:35:27;;;;;;;;;;;0.90;99.90;;;;;;5084591;28;19924;-70
2022/03/21 04:37:55;;;;;;;;;;;0.90;99.90;;;;;;5077113;28;19924;-69
2022/03/21 04:40:22;;;;;;;;;;;0.90;99.90;;;;;;5082427;28;19964;-70
2022/03/21 04:42:51;;;;;;;;;;;0.80;99.90;;;;;;5074222;28;19928;-69
2022/03/21 04:45:17;;;;;;;;;;;0.90;99.90;;;;;;5079962;28;20008;-70
2022/03/21 04:47:45;;;;;;;;;;;0.90;99.90;;;;;;5081924;28;19947;-71
2022/03/21 04:50:12;;;;;;;;;;;1.40;99.90;;;;;;5078681;28;19924;-70
2022/03/21 04:52:39;;;;;;;;;;;0.90;99.90;;;;;;5079098;28;19924;-70
2022/03/21 04:55:07;;;;;;;;;;;0.90;99.90;;;;;;5082770;28;20015;-70
2022/03/21 04:57:34;;;;;;;;;;;0.80;99.90;;;;;;5086869;28;19924;-71
2022/03/21 05:00:03;;;;;;;;;;;0.70;99.90;;;;;;5080332;28;20022;-69
2022/03/21 05:02:30;;;;;;;;;;;0.70;99.90;;;;;;5085597;28;20379;-69
2022/03/21 05:04:56;;;;;;;;;;;0.70;99.90;;;;;;5085118;28;19931;-69
2022/03/21 05:07:25;;;;;;;;;;;0.70;99.90;;;;;;5078270;28;19935;-69
2022/03/21 05:09:52;;;;;;;;;;;0.70;99.90;;;;;;5080863;28;19972;-69
2022/03/21 05:12:20;;;;;;;;;;;0.70;99.90;;;;;;5085738;28;19924;-69
2022/03/21 05:14:47;;;;;;;;;;;0.90;99.90;;;;;;5083450;28;20023;-70
2022/03/21 05:17:17;;;;;;;;;;;0.70;99.90;;;;;;5095102;28;19947;-71
2022/03/21 05:19:44;;;;;;;;;;;0.70;99.90;;;;;;5080360;28;20020;-70
2022/03/21 05:22:11;;;;;;;;;;;0.50;99.90;;;;;;5084968;28;20064;-70
2022/03/21 05:35:54;;;;;;;;;;;0.50;99.90;;;;;;4974562;28;19925;-70
2022/03/21 05:38:22;;;;;;;;;;;0.40;99.90;;;;;;5058526;28;19928;-70
2022/03/21 05:40:49;;;;;;;;;;;0.50;99.90;;;;;;5084860;28;19968;-69
2022/03/21 05:43:15;;;;;;;;;;;0.30;99.90;;;;;;5081090;28;19924;-69
2022/03/21 05:45:43;;;;;;;;;;;0.40;99.90;;;;;;5084160;28;19925;-69
2022/03/21 05:50:55;;;;;;;;;;;0.30;99.90;;;;;;5078242;28;20053;-69
2022/03/21 05:53:22;;;;;;;;;;;0.30;99.90;;;;;;5079178;28;19964;-69
2022/03/21 05:55:48;;;;;;;;;;;0.20;99.90;;;;;;5083007;28;19924;-69
2022/03/21 05:58:15;;;;;;;;;;;0.30;99.90;;;;;;5089027;28;19967;-69
2022/03/21 06:00:42;;;;;;;;;;;0.40;99.90;;;;;;5079226;28;20014;-69
2022/03/21 06:03:10;;;;;;;;;;;0.30;99.90;;;;;;5081395;28;19924;-69
2022/03/21 06:05:40;;;;;;;;;;;0.20;99.90;;;;;;5077961;28;20440;-69
2022/03/21 06:08:08;;;;;;;;;;;0.30;99.90;;;;;;5078911;28;19932;-69
2022/03/21 06:10:36;;;;;;;;;;;0.40;99.90;;;;;;5075904;28;20391;-71
2022/03/21 06:13:05;;;;;;;;;;;0.60;99.90;;;;;;5081468;28;19997;-70
2022/03/21 06:15:32;;;;;;;;;;;0.60;99.90;;;;;;5080113;28;20407;-70
2022/03/21 06:17:59;;;;;;;;;;;0.70;99.90;;;;;;5065326;28;19928;-71
2022/03/21 06:20:27;;;;;;;;;;;0.80;99.90;;;;;;5081107;28;19931;-71
2022/03/21 06:22:55;;;;;;;;;;;0.90;99.90;;;;;;5079419;28;19931;-71
2022/03/21 06:25:21;;;;;;;;;;;1.00;99.90;;;;;;5081347;28;19932;-71
2022/03/21 06:27:49;;;;;;;;;;;1.10;99.90;;;;;;5080976;28;19924;-70
2022/03/21 06:30:16;;;;;;;;;;;1.20;99.90;;;;;;5088124;28;19924;-71
2022/03/21 06:32:43;;;;;;;;;;;1.40;99.90;;;;;;5086495;28;20345;-72
2022/03/21 06:35:10;;;;;;;;;;;1.40;99.90;;;;;;5086616;28;19924;-71
2022/03/21 06:37:37;;;;;;;;;;;1.40;99.90;;;;;;5080646;28;20026;-71
2022/03/21 06:40:06;;;;;;;;;;;1.50;99.90;;;;;;5078578;28;19978;-71
2022/03/21 06:42:33;;;;;;;;;;;1.60;99.90;;;;;;5084462;28;19931;-71
2022/03/21 06:44:59;;;;;;;;;;;1.60;99.90;;;;;;5084273;28;20372;-72
2022/03/21 06:47:26;;;;;;;;;;;1.80;99.90;;;;;;5085774;28;19928;-71
2022/03/21 06:49:53;;;;;;;;;;;1.80;99.90;;;;;;5078025;28;19930;-72
2022/03/21 06:52:20;;;;;;;;;;;1.90;99.90;;;;;;5076616;28;19928;-71
2022/03/21 06:54:48;;;;;;;;;;;2.00;99.90;;;;;;5082759;28;19935;-71
2022/03/21 06:57:17;;;;;;;;;;;2.10;99.90;;;;;;5081166;28;19963;-71
2022/03/21 06:59:45;;;;;;;;;;;2.20;99.90;;;;;;5083539;28;20024;-71
2022/03/21 07:02:12;;;;;;;;;;;2.30;99.90;;;;;;5076673;28;19927;-70
2022/03/21 07:04:40;;;;;;;;;;;2.40;99.90;;;;;;5083873;28;19931;-72
2022/03/21 07:07:07;;;;;;;;;;;2.50;99.90;;;;;;5082410;28;19931;-71
2022/03/21 07:09:33;;;;;;;;;;;2.50;99.90;;;;;;5087165;28;20441;-73
2022/03/21 07:12:00;;;;;;;;;;;2.50;99.90;;;;;;5073859;28;19925;-71
2022/03/21 07:14:28;;;;;;;;;;;2.80;99.90;;;;;;5075124;28;19928;-69
2022/03/21 07:16:55;;;;;;;;;;;2.90;99.90;;;;;;5077989;28;20319;-70
2022/03/21 07:19:22;;;;;;;;;;;2.90;99.90;;;;;;5078128;28;19928;-70
2022/03/21 07:21:49;;;;;;;;;;;3.20;99.90;;;;;;5078649;28;20353;-74
2022/03/21 07:24:16;;;;;;;;;;;3.00;99.90;;;;;;5077789;28;19924;-71
2022/03/21 07:26:43;;;;;;;;;;;3.10;99.90;;;;;;5078513;28;20378;-71
2022/03/21 07:29:11;;;;;;;;;;;3.10;99.90;;;;;;5078396;28;20370;-71
2022/03/21 07:31:39;;;;;;;;;;;3.20;99.90;;;;;;5071129;28;19932;-71
2022/03/21 07:34:07;;;;;;;;;;;3.30;99.90;;;;;;5070094;28;19936;-71
2022/03/21 07:36:34;;;;;;;;;;;3.40;99.90;;;;;;5073601;28;20235;-71
2022/03/21 07:39:00;;;;;;;;;;;3.50;99.90;;;;;;5078789;28;19927;-71
2022/03/21 07:41:27;;;;;;;;;;;3.70;99.90;;;;;;5078738;28;20419;-71
2022/03/21 07:43:57;;;;;;;;;;;4.20;99.90;;;;;;5077729;28;19986;-71
2022/03/21 07:49:09;;;;;;;;;;;8.10;99.90;;;;;;5084696;28;19935;-71
2022/03/21 07:51:36;;;;;;;;;;;10.30;99.90;;;;;;5080102;28;19924;-71
2022/03/21 07:54:03;;;;;;;;;;;11.60;92.90;;;;;;5070162;28;19924;-72
2022/03/21 07:56:30;;;;;;;;;;;12.30;85.80;;;;;;5077078;28;19999;-71
2022/03/21 07:58:59;;;;;;;;;;;12.50;79.10;;;;;;5078569;28;19931;-70
2022/03/21 08:01:27;;;;;;;;;;;12.90;76.40;;;;;;5078205;28;20497;-73
2022/03/21 08:03:54;;;;;;;;;;;13.00;72.90;;;;;;5073148;28;19925;-70
2022/03/21 08:06:22;;;;;;;;;;;12.90;73.50;;;;;;5075846;28;19928;-70
2022/03/21 08:08:50;;;;;;;;;;;14.30;70.30;;;;;;5073949;28;20445;-70
2022/03/21 08:11:18;;;;;;;;;;;15.10;65.00;;;;;;5081633;28;19924;-71
2022/03/21 08:13:44;;;;;;;;;;;15.80;61.10;;;;;;5071911;28;19932;-71
2022/03/21 08:16:11;;;;;;;;;;;16.10;57.90;;;;;;5082457;28;19939;-71
2022/03/21 08:18:40;;;;;;;;;;;16.10;57.50;;;;;;5082691;28;19924;-71
2022/03/21 08:21:07;;;;;;;;;;;16.00;55.80;;;;;;5076924;28;19931;-71
2022/03/21 08:23:35;;;;;;;;;;;14.90;55.90;;;;;;5074086;28;19925;-71
2022/03/21 08:26:01;;;;;;;;;;;15.60;56.60;;;;;;5076522;28;19925;-70
2022/03/21 08:28:28;;;;;;;;;;;16.20;54.40;;;;;;5073997;28;19935;-71
2022/03/21 08:30:55;;;;;;;;;;;15.90;55.50;;;;;;5075333;28;20299;-71
2022/03/21 08:33:22;;;;;;;;;;;15.10;59.00;;;;;;5073284;28;20019;-71
2022/03/21 08:35:50;;;;;;;;;;;15.90;57.40;;;;;;5075722;28;19935;-71
2022/03/21 08:38:17;;;;;;;;;;;15.70;57.70;;;;;;5080676;28;19931;-71
2022/03/21 08:40:45;;;;;;;;;;;15.50;58.20;;;;;;5077668;28;19932;-71
2022/03/21 08:43:12;;;;;;;;;;;14.20;60.40;;;;;;5073878;28;20066;-71
2022/03/21 08:45:40;;;;;;;;;;;13.10;63.50;;;;;;5075737;28;19987;-71
2022/03/21 08:48:07;;;;;;;;;;;12.90;70.40;;;;;;5072993;28;19931;-71
2022/03/21 08:50:34;;;;;;;;;;;11.80;77.00;;;;;;5075361;28;19925;-71
2022/03/21 08:53:01;;;;;;;;;;;12.00;71.10;;;;;;5074985;28;19931;-71
2022/03/21 08:55:28;;;;;;;;;;;13.20;71.30;;;;;;5081802;28;19946;-72
2022/03/21 08:57:58;;;;;;;;;;;13.40;69.40;;;;;;5080821;28;20023;-71
2022/03/21 09:00:25;;;;;;;;;;;13.30;70.20;;;;;;5076867;28;21908;-72
2022/03/21 09:02:54;;;;;;;;;;;13.50;69.80;;;;;;5074186;28;19934;-71
2022/03/21 09:05:21;;;;;;;;;;;13.40;69.70;;;;;;5074641;28;19932;-71
2022/03/21 09:07:48;;;;;;;;;;;13.90;67.40;;;;;;5076042;28;19924;-72
2022/03/21 09:10:16;;;;;;;;;;;13.60;69.00;;;;;;5079683;28;19932;-71
2022/03/21 09:12:43;;;;;;;;;;;12.10;74.10;;;;;;5081451;28;19931;-71
2022/03/21 09:15:11;;;;;;;;;;;11.90;76.40;;;;;;5076941;28;19925;-72
2022/03/21 09:17:38;;;;;;;;;;;12.70;74.10;;;;;;5078592;28;20302;-71
2022/03/21 09:20:05;;;;;;;;;;;13.40;74.50;;;;;;5085122;28;19933;-72
2022/03/21 09:22:32;;;;;;;;;;;15.50;66.00;;;;;;5081454;28;20391;-72
2022/03/21 09:24:59;;;;;;;;;;;16.30;62.80;;;;;;5076700;28;19932;-72
2022/03/21 09:27:27;;;;;;;;;;;16.90;58.90;;;;;;5078941;28;19929;-70
2022/03/21 09:29:54;;;;;;;;;;;16.80;59.20;;;;;;5085916;28;21280;-70
2022/03/21 09:32:22;;;;;;;;;;;18.00;57.20;;;;;;5082811;28;19925;-70
2022/03/21 09:34:49;;;;;;;;;;;18.70;55.40;;;;;;5079414;28;20029;-69
2022/03/21 09:37:18;;;;;;;;;;;18.60;53.60;;;;;;5079532;28;20008;-70
2022/03/21 09:39:45;;;;;;;;;;;17.00;55.60;;;;;;5077757;28;20406;-70
2022/03/21 09:42:14;;;;;;;;;;;17.90;55.90;;;;;;5078513;28;19928;-68
2022/03/21 09:44:40;;;;;;;;;;;18.20;55.10;;;;;;5074682;28;19978;-69
2022/03/21 09:49:51;;;;;;;;;;;18.00;53.20;;;;;;5068819;28;19928;-70
2022/03/21 09:52:18;;;;;;;;;;;18.10;53.20;;;;;;5078343;28;19924;-70
2022/03/21 09:54:45;;;;;;;;;;;16.10;66.40;;;;;;5078799;28;19924;-70
2022/03/21 09:57:12;;;;;;;;;;;17.50;64.30;;;;;;5085037;28;19975;-72
2022/03/21 09:59:39;;;;;;;;;;;18.30;61.60;;;;;;5079110;28;19924;-70
2022/03/21 10:02:07;;;;;;;;;;;18.80;59.40;;;;;;5081523;28;19990;-70
2022/03/21 10:04:34;;;;;;;;;;;17.10;61.40;;;;;;5077812;28;19924;-70
2022/03/21 10:07:02;;;;;;;;;;;17.80;60.80;;;;;;5079153;28;20026;-72
2022/03/21 10:09:28;;;;;;;;;;;18.20;59.70;;;;;;5073465;28;19924;-70
2022/03/21 10:11:56;;;;;;;;;;;19.10;58.00;;;;;;5083851;28;19924;-70
2022/03/21 10:14:24;;;;;;;;;;;17.50;58.70;;;;;;5079013;28;20386;-71
2022/03/21 10:16:51;;;;;;;;;;;15.60;58.30;;;;;;5077389;28;20391;-70
2022/03/21 10:19:18;;;;;;;;;;;15.10;58.60;;;;;;5087055;28;19932;-71
2022/03/21 10:21:59;;;;;;;;;;;14.90;61.10;;;;;;5088516;28;19924;-71
2022/03/21 10:24:27;;;;;;;;;;;14.50;63.90;;;;;;5082510;28;19924;-71
2022/03/21 10:26:55;;;;;;;;;;;14.60;62.50;;;;;;5075714;28;19928;-71
2022/03/21 10:29:22;;;;;;;;;;;14.00;63.30;;;;;;5082069;28;19928;-72
2022/03/21 10:31:51;;;;;;;;;;;13.80;65.30;;;;;;5081228;28;19932;-72
2022/03/21 10:34:19;;;;;;;;;;;13.90;65.20;;;;;;5075924;28;20017;-72
2022/03/21 10:36:59;;;;;;;;;;;14.00;65.20;;;;;;5081699;28;19924;-71
2022/03/21 10:39:26;;;;;;;;;;;14.10;64.50;;;;;;5084319;28;19924;-71
2022/03/21 10:41:57;;;;;;;;;;;13.70;65.80;;;;;;5075555;28;20011;-72
2022/03/21 10:44:24;;;;;;;;;;;13.90;66.90;;;;;;5078168;28;20580;-70
2022/03/21 10:46:54;;;;;;;;;;;14.00;66.10;;;;;;5079278;28;19953;-69
2022/03/21 10:49:31;;;;;;;;;;;13.50;66.90;;;;;;5077045;28;20010;-70
2022/03/21 10:51:58;;;;;;;;;;;13.30;69.00;;;;;;5078227;28;19969;-70
2022/03/21 10:54:38;;;;;;;;;;;13.60;69.70;;;;;;5077229;28;19990;-70
2022/03/21 10:57:07;;;;;;;;;;;13.90;69.20;;;;;;5078920;28;19924;-70
2022/03/21 10:59:34;;;;;;;;;;;14.30;67.60;;;;;;5080243;28;19954;-69
2022/03/21 11:02:11;;;;;;;;;;;14.50;66.80;;;;;;5080589;28;19928;-69
2022/03/21 11:04:38;;;;;;;;;;;14.70;66.20;;;;;;5081505;28;19924;-70
2022/03/21 11:07:05;;;;;;;;;;;14.60;65.70;;;;;;5078851;28;19944;-69
2022/03/21 11:09:32;;;;;;;;;;;14.80;66.50;;;;;;5078951;28;19993;-69
2022/03/21 11:11:59;;;;;;;;;;;14.80;65.60;;;;;;5080457;28;20355;-71
2022/03/21 11:14:28;;;;;;;;;;;14.80;65.70;;;;;;5074802;28;20481;-70
2022/03/21 11:16:55;;;;;;;;;;;14.50;67.70;;;;;;5077506;28;20011;-62
2022/03/21 11:19:22;;;;;;;;;;;14.20;69.20;;;;;;5079215;28;19940;-70
2022/03/21 11:21:50;;;;;;;;;;;13.90;69.40;;;;;;5078957;28;20037;-70
2022/03/21 11:24:17;;;;;;;;;;;14.20;68.90;;;;;;5078761;28;19936;-70
2022/03/21 11:26:48;;;;;;;;;;;14.50;69.20;;;;;;5083428;28;19924;-69
2022/03/21 11:29:17;;;;;;;;;;;14.80;68.30;;;;;;5084502;28;19935;-69
2022/03/21 11:31:57;;;;;;;;;;;14.90;68.30;;;;;;5076637;28;19935;-68
2022/03/21 11:34:28;;;;;;;;;;;14.50;68.30;;;;;;5076176;28;20027;-70
2022/03/21 11:36:55;;;;;;;;;;;14.30;69.40;;;;;;5083370;28;19939;-71
2022/03/21 11:39:22;;;;;;;;;;;14.50;68.70;;;;;;5082111;28;19931;-70
2022/03/21 11:41:59;;;;;;;;;;;14.60;69.00;;;;;;5085199;28;19924;-68
2022/03/21 11:44:26;;;;;;;;;;;14.70;69.00;;;;;;5079572;28;20317;-70
2022/03/21 11:46:54;;;;;;;;;;;15.10;68.20;;;;;;5079859;28;19977;-73
2022/03/21 11:49:39;;;;;;;;;;;15.20;67.70;;;;;;5076553;28;20019;-69
2022/03/21 11:52:06;;;;;;;;;;;15.00;67.80;;;;;;5083641;28;19924;-70
2022/03/21 11:54:34;;;;;;;;;;;15.20;68.90;;;;;;5073493;28;20335;-68
2022/03/21 11:57:02;;;;;;;;;;;15.40;68.80;;;;;;5078782;28;20341;-69
2022/03/21 11:59:52;;;;;;;;;;;15.70;67.70;;;;;;5083313;28;19937;-69
2022/03/21 12:02:53;;;;;;;;;;;15.60;69.00;;;;;;5085523;28;19923;-69
2022/03/21 12:05:41;;;;;;;;;;;15.40;68.50;;;;;;5078529;28;19932;-69
2022/03/21 12:08:26;;;;;;;;;;;15.70;68.30;;;;;;5073170;28;19939;-71
2022/03/21 12:10:53;;;;;;;;;;;15.70;68.30;;;;;;5080577;28;20075;-69
2022/03/21 12:13:19;;;;;;;;;;;15.70;67.80;;;;;;5076124;28;19924;-71
2022/03/21 12:15:50;;;;;;;;;;;15.90;68.60;;;;;;5076607;28;19951;-69
2022/03/21 12:18:18;;;;;;;;;;;15.90;67.00;;;;;;5079180;28;20407;-70
2022/03/21 12:20:48;;;;;;;;;;;16.20;66.10;;;;;;5078248;28;19985;-69
2022/03/21 12:23:16;;;;;;;;;;;16.10;67.20;;;;;;5083106;28;19963;-68
2022/03/21 12:25:48;;;;;;;;;;;16.20;65.50;;;;;;5080053;28;19928;-70
2022/03/21 12:28:19;;;;;;;;;;;16.20;65.30;;;;;;5067301;28;19928;-68
2022/03/21 12:30:48;;;;;;;;;;;16.20;65.10;;;;;;5086531;28;20617;-69
2022/03/21 12:33:30;;;;;;;;;;;16.20;64.80;;;;;;5090773;28;19963;-70
2022/03/21 12:36:05;;;;;;;;;;;16.40;64.70;;;;;;5084921;28;19932;-71
2022/03/21 12:38:36;;;;;;;;;;;16.60;64.00;;;;;;5088172;28;20392;-69
2022/03/21 12:41:04;;;;;;;;;;;16.70;65.10;;;;;;5085076;28;19959;-71
2022/03/21 12:43:31;;;;;;;;;;;16.90;63.50;;;;;;5085899;28;20466;-70
2022/03/21 12:46:08;;;;;;;;;;;17.20;64.00;;;;;;5082557;28;20046;-69
2022/03/21 12:48:35;;;;;;;;;;;17.20;61.70;;;;;;5081973;28;19924;-70
2022/03/21 12:51:05;;;;;;;;;;;17.10;61.80;;;;;;5080114;28;20548;-69
2022/03/21 12:53:36;;;;;;;;;;;17.30;62.50;;;;;;5090767;28;19931;-68
2022/03/21 12:56:04;;;;;;;;;;;17.50;62.00;;;;;;5079450;28;19939;-69
2022/03/21 12:58:31;;;;;;;;;;;17.80;60.60;;;;;;5090948;28;20371;-68
2022/03/21 13:01:00;;;;;;;;;;;18.00;59.90;;;;;;5085673;28;19939;-68
2022/03/21 13:03:27;;;;;;;;;;;18.00;59.70;;;;;;5087659;28;20665;-68
2022/03/21 13:11:24;;;;;;;;;;;17.70;59.50;;;;;;5081704;28;20033;-68
2022/03/21 13:13:54;;;;;;;;;;;17.30;61.00;;;;;;5087182;28;20276;-68
2022/03/21 13:16:21;;;;;;;;;;;17.10;65.00;;;;;;5086373;28;19931;-69
2022/03/21 13:18:49;;;;;;;;;;;16.80;63.40;;;;;;5085655;28;19928;-69
2022/03/21 13:21:19;;;;;;;;;;;16.80;65.00;;;;;;5084914;28;20093;-69
2022/03/21 13:23:47;;;;;;;;;;;16.70;63.00;;;;;;5087080;28;20290;-69
2022/03/21 13:26:16;;;;;;;;;;;17.10;62.60;;;;;;5088136;28;20013;-69
2022/03/21 13:28:43;;;;;;;;;;;17.30;61.60;;;;;;5079569;28;20011;-68
2022/03/21 13:31:15;;;;;;;;;;;17.20;63.10;;;;;;5087373;28;19932;-69
2022/03/21 13:33:50;;;;;;;;;;;17.10;61.80;;;;;;5083306;28;19934;-68
2022/03/21 13:36:19;;;;;;;;;;;17.20;61.40;;;;;;5082297;28;20019;-68
2022/03/21 13:38:47;;;;;;;;;;;17.20;60.00;;;;;;5079117;28;19981;-68
2022/03/21 13:41:14;;;;;;;;;;;17.10;59.80;;;;;;5083539;28;19927;-69
2022/03/21 13:43:42;;;;;;;;;;;17.20;61.00;;;;;;5086702;28;19933;-67
2022/03/21 13:46:09;;;;;;;;;;;17.30;60.90;;;;;;5077523;28;19928;-67
2022/03/21 13:48:38;;;;;;;;;;;17.60;59.90;;;;;;5086930;28;19924;-69
2022/03/21 13:51:09;;;;;;;;;;;18.10;58.90;;;;;;5082769;28;19928;-69
2022/03/21 13:53:39;;;;;;;;;;;18.50;57.40;;;;;;5083780;28;20455;-69
2022/03/21 13:56:08;;;;;;;;;;;18.40;56.20;;;;;;5079983;28;20409;-69
2022/03/21 13:58:36;;;;;;;;;;;18.70;56.10;;;;;;5075406;28;20461;-69
2022/03/21 14:01:03;;;;;;;;;;;18.90;55.70;;;;;;5077715;28;20040;-68
2022/03/21 14:03:32;;;;;;;;;;;19.00;54.60;;;;;;5081926;28;19930;-69
2022/03/21 14:05:59;;;;;;;;;;;19.00;54.30;;;;;;5077436;28;19932;-69
2022/03/21 14:08:25;;;;;;;;;;;19.10;54.10;;;;;;5077528;28;20431;-68
2022/03/21 14:10:53;;;;;;;;;;;19.20;54.00;;;;;;5080654;28;20023;-68
2022/03/21 14:13:22;;;;;;;;;;;19.10;53.50;;;;;;5083648;28;19952;-69
2022/03/21 14:15:50;;;;;;;;;;;19.10;53.80;;;;;;5081457;28;19935;-69
2022/03/21 14:18:18;;;;;;;;;;;19.20;52.90;;;;;;5086226;28;19978;-70
2022/03/21 14:20:45;;;;;;;;;;;19.20;53.20;;;;;;5080400;28;19942;-70
2022/03/21 14:23:12;;;;;;;;;;;19.00;52.20;;;;;;5079406;28;19924;-71
2022/03/21 14:28:24;;;;;;;;;;;19.30;53.30;;;;;;5080649;28;19931;-69
2022/03/21 14:30:50;;;;;;;;;;;19.40;52.60;;;;;;5077960;28;20007;-70
2022/03/21 14:33:17;;;;;;;;;;;19.30;52.10;;;;;;5086561;28;19930;-70
2022/03/21 14:35:44;;;;;;;;;;;18.70;53.30;;;;;;5082408;28;19930;-70
2022/03/21 14:38:11;;;;;;;;;;;18.60;54.20;;;;;;5084168;28;19951;-69
2022/03/21 14:40:38;;;;;;;;;;;18.70;53.50;;;;;;5080022;28;20398;-69
2022/03/21 14:43:07;;;;;;;;;;;18.80;53.70;;;;;;5081866;28;20174;-70
2022/03/21 14:45:36;;;;;;;;;;;18.70;54.10;;;;;;5076992;28;19924;-69
2022/03/21 14:48:03;;;;;;;;;;;18.70;53.20;;;;;;5079148;28;19928;-69
2022/03/21 14:50:30;;;;;;;;;;;18.70;53.10;;;;;;5075298;28;19924;-69
2022/03/21 14:52:57;;;;;;;;;;;18.50;55.20;;;;;;5076269;28;20282;-69
2022/03/21 14:55:24;;;;;;;;;;;18.10;55.30;;;;;;5078700;28;20375;-69
2022/03/21 14:57:51;;;;;;;;;;;18.00;55.60;;;;;;5076839;28;19967;-69
2022/03/21 15:00:18;;;;;;;;;;;18.10;55.80;;;;;;5074788;28;19925;-69
2022/03/21 15:02:52;;;;;;;;;;;18.10;56.20;;;;;;5087761;28;20341;-68